sensor_id;sensor_type;location;lat;lon;timestamp;P1;durP1;ratioP1;P2;durP2;ratioP2
62353;SDS011;48391;49.184;2.418;2022-08-21T00:00:07;8.20;;;2.72;;
62353;SDS011;48391;49.184;2.418;2022-08-21T00:02:34;8.30;;;3.75;;
62353;SDS011;48391;49.184;2.418;2022-08-21T00:05:00;5.00;;;3.25;;
62353;SDS011;48391;49.184;2.418;2022-08-21T00:07:27;7.30;;;2.35;;
62353;SDS011;48391;49.184;2.418;2022-08-21T00:09:53;4.50;;;2.70;;
62353;SDS011;48391;49.184;2.418;2022-08-21T00:12:20;4.97;;;2.70;;
62353;SDS011;48391;49.184;2.418;2022-08-21T06:16:53;3.22;;;2.67;;
62353;SDS011;48391;49.184;2.418;2022-08-21T06:19:19;5.47;;;2.38;;
62353;SDS011;48391;49.184;2.418;2022-08-21T06:21:48;5.18;;;2.70;;
62353;SDS011;48391;49.184;2.418;2022-08-21T06:24:14;2.42;;;2.17;;
62353;SDS011;48391;49.184;2.418;2022-08-21T06:26:43;6.68;;;3.65;;
62353;SDS011;48391;49.184;2.418;2022-08-21T06:29:09;5.22;;;2.60;;
62353;SDS011;48391;49.184;2.418;2022-08-21T06:31:38;3.55;;;2.53;;
62353;SDS011;48391;49.184;2.418;2022-08-21T06:34:05;6.00;;;2.80;;
62353;SDS011;48391;49.184;2.418;2022-08-21T06:36:31;2.55;;;1.88;;
62353;SDS011;48391;49.184;2.418;2022-08-21T06:38:57;6.13;;;3.13;;
62353;SDS011;48391;49.184;2.418;2022-08-21T06:41:23;5.85;;;2.50;;
62353;SDS011;48391;49.184;2.418;2022-08-21T06:43:49;4.25;;;2.90;;
62353;SDS011;48391;49.184;2.418;2022-08-21T06:46:15;6.65;;;2.13;;
62353;SDS011;48391;49.184;2.418;2022-08-21T06:48:41;3.28;;;2.22;;
62353;SDS011;48391;49.184;2.418;2022-08-21T06:51:07;8.15;;;2.55;;
62353;SDS011;48391;49.184;2.418;2022-08-21T06:53:34;3.22;;;1.73;;
62353;SDS011;48391;49.184;2.418;2022-08-21T06:56:00;12.82;;;3.08;;
62353;SDS011;48391;49.184;2.418;2022-08-21T06:58:26;5.97;;;1.75;;
62353;SDS011;48391;49.184;2.418;2022-08-21T07:00:52;4.88;;;1.90;;
62353;SDS011;48391;49.184;2.418;2022-08-21T07:05:48;8.15;;;2.40;;
62353;SDS011;48391;49.184;2.418;2022-08-21T07:08:16;6.18;;;1.90;;
62353;SDS011;48391;49.184;2.418;2022-08-21T07:10:42;4.63;;;1.92;;
62353;SDS011;48391;49.184;2.418;2022-08-21T07:13:08;4.13;;;1.85;;
62353;SDS011;48391;49.184;2.418;2022-08-21T07:15:35;4.03;;;1.63;;
62353;SDS011;48391;49.184;2.418;2022-08-21T07:18:01;4.90;;;1.90;;
62353;SDS011;48391;49.184;2.418;2022-08-21T07:20:27;7.93;;;1.55;;
62353;SDS011;48391;49.184;2.418;2022-08-21T07:22:54;6.30;;;1.60;;
62353;SDS011;48391;49.184;2.418;2022-08-21T07:25:20;6.65;;;1.67;;
62353;SDS011;48391;49.184;2.418;2022-08-21T07:27:46;5.68;;;2.25;;
62353;SDS011;48391;49.184;2.418;2022-08-21T07:30:12;5.25;;;2.10;;
62353;SDS011;48391;49.184;2.418;2022-08-21T07:32:38;5.68;;;1.63;;
62353;SDS011;48391;49.184;2.418;2022-08-21T07:35:04;4.65;;;1.67;;
62353;SDS011;48391;49.184;2.418;2022-08-21T07:37:30;4.38;;;1.27;;
62353;SDS011;48391;49.184;2.418;2022-08-21T07:39:56;5.57;;;2.05;;
62353;SDS011;48391;49.184;2.418;2022-08-21T07:42:22;5.97;;;1.30;;
62353;SDS011;48391;49.184;2.418;2022-08-21T07:44:48;2.78;;;1.40;;
62353;SDS011;48391;49.184;2.418;2022-08-21T07:47:14;3.92;;;1.25;;
62353;SDS011;48391;49.184;2.418;2022-08-21T07:49:40;2.55;;;1.45;;
62353;SDS011;48391;49.184;2.418;2022-08-21T07:52:06;4.57;;;1.98;;
62353;SDS011;48391;49.184;2.418;2022-08-21T07:54:32;5.78;;;1.63;;
62353;SDS011;48391;49.184;2.418;2022-08-21T07:56:58;5.70;;;1.38;;
62353;SDS011;48391;49.184;2.418;2022-08-21T07:59:24;3.35;;;1.55;;
62353;SDS011;48391;49.184;2.418;2022-08-21T08:01:50;10.70;;;2.00;;
62353;SDS011;48391;49.184;2.418;2022-08-21T08:04:16;5.38;;;1.48;;
62353;SDS011;48391;49.184;2.418;2022-08-21T08:06:42;7.97;;;1.90;;
62353;SDS011;48391;49.184;2.418;2022-08-21T08:09:08;14.07;;;2.38;;
62353;SDS011;48391;49.184;2.418;2022-08-21T08:11:35;5.38;;;2.20;;
62353;SDS011;48391;49.184;2.418;2022-08-21T08:14:01;3.92;;;1.58;;
62353;SDS011;48391;49.184;2.418;2022-08-21T08:16:28;4.38;;;2.47;;
62353;SDS011;48391;49.184;2.418;2022-08-21T08:18:54;5.10;;;1.42;;
62353;SDS011;48391;49.184;2.418;2022-08-21T08:21:20;3.58;;;1.52;;
62353;SDS011;48391;49.184;2.418;2022-08-21T08:23:47;4.53;;;1.55;;
62353;SDS011;48391;49.184;2.418;2022-08-21T08:26:13;7.65;;;1.75;;
62353;SDS011;48391;49.184;2.418;2022-08-21T08:28:40;3.53;;;1.95;;
62353;SDS011;48391;49.184;2.418;2022-08-21T08:31:07;6.70;;;1.25;;
62353;SDS011;48391;49.184;2.418;2022-08-21T08:33:33;6.75;;;2.00;;
62353;SDS011;48391;49.184;2.418;2022-08-21T08:35:59;6.47;;;1.13;;
62353;SDS011;48391;49.184;2.418;2022-08-21T08:38:25;7.60;;;1.60;;
62353;SDS011;48391;49.184;2.418;2022-08-21T08:43:17;4.35;;;1.70;;
62353;SDS011;48391;49.184;2.418;2022-08-21T08:45:44;4.65;;;1.50;;
62353;SDS011;48391;49.184;2.418;2022-08-21T08:48:12;4.78;;;1.77;;
62353;SDS011;48391;49.184;2.418;2022-08-21T08:50:49;5.10;;;1.70;;
62353;SDS011;48391;49.184;2.418;2022-08-21T08:53:20;2.92;;;1.00;;
62353;SDS011;48391;49.184;2.418;2022-08-21T08:55:47;2.28;;;1.33;;
62353;SDS011;48391;49.184;2.418;2022-08-21T08:58:23;10.13;;;1.48;;
62353;SDS011;48391;49.184;2.418;2022-08-21T09:00:51;3.95;;;1.35;;
62353;SDS011;48391;49.184;2.418;2022-08-21T09:03:17;3.45;;;1.60;;
62353;SDS011;48391;49.184;2.418;2022-08-21T09:05:54;4.97;;;1.25;;
62353;SDS011;48391;49.184;2.418;2022-08-21T09:08:27;3.63;;;1.42;;
62353;SDS011;48391;49.184;2.418;2022-08-21T09:16:54;2.38;;;1.42;;
62353;SDS011;48391;49.184;2.418;2022-08-21T09:22:02;2.42;;;1.00;;
62353;SDS011;48391;49.184;2.418;2022-08-21T09:24:31;3.63;;;1.73;;
62353;SDS011;48391;49.184;2.418;2022-08-21T09:29:35;4.97;;;1.48;;
62353;SDS011;48391;49.184;2.418;2022-08-21T09:32:02;7.78;;;2.17;;
62353;SDS011;48391;49.184;2.418;2022-08-21T09:34:30;3.25;;;1.17;;
62353;SDS011;48391;49.184;2.418;2022-08-21T09:36:57;3.38;;;1.50;;
62353;SDS011;48391;49.184;2.418;2022-08-21T09:39:27;2.13;;;0.80;;
62353;SDS011;48391;49.184;2.418;2022-08-21T09:42:01;4.40;;;0.97;;
62353;SDS011;48391;49.184;2.418;2022-08-21T09:44:28;6.18;;;1.77;;
62353;SDS011;48391;49.184;2.418;2022-08-21T09:46:54;2.08;;;1.23;;
62353;SDS011;48391;49.184;2.418;2022-08-21T09:49:27;3.50;;;1.48;;
62353;SDS011;48391;49.184;2.418;2022-08-21T09:51:54;9.52;;;2.50;;
62353;SDS011;48391;49.184;2.418;2022-08-21T09:54:20;4.80;;;0.90;;
62353;SDS011;48391;49.184;2.418;2022-08-21T09:59:41;3.25;;;1.35;;
62353;SDS011;48391;49.184;2.418;2022-08-21T10:04:49;5.80;;;1.60;;
62353;SDS011;48391;49.184;2.418;2022-08-21T10:07:19;7.40;;;2.08;;
62353;SDS011;48391;49.184;2.418;2022-08-21T10:09:45;4.35;;;1.88;;
62353;SDS011;48391;49.184;2.418;2022-08-21T10:19:51;3.92;;;1.38;;
62353;SDS011;48391;49.184;2.418;2022-08-21T10:27:37;5.97;;;1.05;;
62353;SDS011;48391;49.184;2.418;2022-08-21T10:37:58;6.78;;;1.25;;
62353;SDS011;48391;49.184;2.418;2022-08-21T10:40:29;6.25;;;2.65;;
62353;SDS011;48391;49.184;2.418;2022-08-21T10:48:07;4.15;;;0.95;;
62353;SDS011;48391;49.184;2.418;2022-08-21T10:50:53;2.78;;;0.95;;
62353;SDS011;48391;49.184;2.418;2022-08-21T10:53:41;4.43;;;1.75;;
62353;SDS011;48391;49.184;2.418;2022-08-21T10:56:13;4.35;;;1.73;;
62353;SDS011;48391;49.184;2.418;2022-08-21T10:58:40;2.78;;;1.08;;
62353;SDS011;48391;49.184;2.418;2022-08-21T11:01:17;7.47;;;1.33;;
62353;SDS011;48391;49.184;2.418;2022-08-21T11:03:46;4.53;;;1.55;;
62353;SDS011;48391;49.184;2.418;2022-08-21T11:06:20;3.40;;;1.35;;
62353;SDS011;48391;49.184;2.418;2022-08-21T11:08:55;3.75;;;1.00;;
62353;SDS011;48391;49.184;2.418;2022-08-21T11:13:54;3.95;;;1.60;;
62353;SDS011;48391;49.184;2.418;2022-08-21T11:18:49;4.53;;;1.45;;
62353;SDS011;48391;49.184;2.418;2022-08-21T11:23:45;4.40;;;1.55;;
62353;SDS011;48391;49.184;2.418;2022-08-21T11:26:23;5.77;;;1.63;;
62353;SDS011;48391;49.184;2.418;2022-08-21T11:29:00;4.80;;;1.63;;
62353;SDS011;48391;49.184;2.418;2022-08-21T11:34:10;2.67;;;1.23;;
62353;SDS011;48391;49.184;2.418;2022-08-21T11:47:02;3.20;;;0.75;;
62353;SDS011;48391;49.184;2.418;2022-08-21T11:49:39;4.78;;;1.33;;
62353;SDS011;48391;49.184;2.418;2022-08-21T11:52:11;3.97;;;1.25;;
62353;SDS011;48391;49.184;2.418;2022-08-21T11:57:13;5.13;;;1.00;;
62353;SDS011;48391;49.184;2.418;2022-08-21T11:59:41;6.07;;;1.58;;
62353;SDS011;48391;49.184;2.418;2022-08-21T12:02:31;4.20;;;1.02;;
62353;SDS011;48391;49.184;2.418;2022-08-21T12:04:55;3.50;;;1.27;;
62353;SDS011;48391;49.184;2.418;2022-08-21T12:07:30;3.15;;;0.82;;
62353;SDS011;48391;49.184;2.418;2022-08-21T12:09:57;1.55;;;0.80;;
62353;SDS011;48391;49.184;2.418;2022-08-21T12:14:51;6.85;;;1.67;;
62353;SDS011;48391;49.184;2.418;2022-08-21T12:17:35;5.97;;;1.10;;
62353;SDS011;48391;49.184;2.418;2022-08-21T12:20:15;2.90;;;1.15;;
62353;SDS011;48391;49.184;2.418;2022-08-21T12:25:08;5.65;;;2.00;;
62353;SDS011;48391;49.184;2.418;2022-08-21T12:27:52;3.47;;;0.95;;
62353;SDS011;48391;49.184;2.418;2022-08-21T12:32:55;3.30;;;1.30;;
62353;SDS011;48391;49.184;2.418;2022-08-21T12:35:23;2.50;;;1.00;;
62353;SDS011;48391;49.184;2.418;2022-08-21T12:37:58;5.75;;;1.23;;
62353;SDS011;48391;49.184;2.418;2022-08-21T12:40:39;3.17;;;1.42;;
62353;SDS011;48391;49.184;2.418;2022-08-21T12:43:06;2.35;;;0.75;;
62353;SDS011;48391;49.184;2.418;2022-08-21T12:45:40;4.18;;;1.08;;
62353;SDS011;48391;49.184;2.418;2022-08-21T12:48:09;2.60;;;1.13;;
62353;SDS011;48391;49.184;2.418;2022-08-21T12:50:49;2.30;;;1.17;;
62353;SDS011;48391;49.184;2.418;2022-08-21T12:55:51;3.30;;;1.20;;
62353;SDS011;48391;49.184;2.418;2022-08-21T12:58:21;5.30;;;1.35;;
62353;SDS011;48391;49.184;2.418;2022-08-21T13:03:50;3.22;;;0.88;;
62353;SDS011;48391;49.184;2.418;2022-08-21T13:06:17;4.00;;;1.10;;
62353;SDS011;48391;49.184;2.418;2022-08-21T13:08:44;1.88;;;1.23;;
62353;SDS011;48391;49.184;2.418;2022-08-21T13:11:12;4.32;;;1.50;;
62353;SDS011;48391;49.184;2.418;2022-08-21T13:13:40;3.63;;;0.82;;
62353;SDS011;48391;49.184;2.418;2022-08-21T13:16:07;2.42;;;1.35;;
62353;SDS011;48391;49.184;2.418;2022-08-21T13:18:34;2.70;;;1.23;;
62353;SDS011;48391;49.184;2.418;2022-08-21T13:21:38;2.50;;;0.90;;
62353;SDS011;48391;49.184;2.418;2022-08-21T13:23:53;3.25;;;1.55;;
62353;SDS011;48391;49.184;2.418;2022-08-21T13:26:20;2.08;;;0.98;;
62353;SDS011;48391;49.184;2.418;2022-08-21T13:28:47;2.85;;;1.08;;
62353;SDS011;48391;49.184;2.418;2022-08-21T13:31:18;3.80;;;1.35;;
62353;SDS011;48391;49.184;2.418;2022-08-21T13:33:46;2.95;;;1.08;;
62353;SDS011;48391;49.184;2.418;2022-08-21T13:36:15;6.88;;;1.00;;
62353;SDS011;48391;49.184;2.418;2022-08-21T13:38:44;2.22;;;1.20;;
62353;SDS011;48391;49.184;2.418;2022-08-21T13:41:32;2.05;;;0.65;;
62353;SDS011;48391;49.184;2.418;2022-08-21T13:43:59;1.60;;;0.70;;
62353;SDS011;48391;49.184;2.418;2022-08-21T13:46:26;2.00;;;1.33;;
62353;SDS011;48391;49.184;2.418;2022-08-21T13:48:53;2.83;;;1.10;;
62353;SDS011;48391;49.184;2.418;2022-08-21T13:51:20;4.30;;;0.95;;
62353;SDS011;48391;49.184;2.418;2022-08-21T13:53:48;2.20;;;0.90;;
62353;SDS011;48391;49.184;2.418;2022-08-21T13:58:50;2.53;;;0.88;;
62353;SDS011;48391;49.184;2.418;2022-08-21T14:03:46;2.63;;;0.90;;
62353;SDS011;48391;49.184;2.418;2022-08-21T14:06:56;2.42;;;1.10;;
62353;SDS011;48391;49.184;2.418;2022-08-21T14:12:04;1.80;;;0.88;;
62353;SDS011;48391;49.184;2.418;2022-08-21T14:14:37;1.80;;;0.40;;
62353;SDS011;48391;49.184;2.418;2022-08-21T14:17:06;4.88;;;1.75;;
62353;SDS011;48391;49.184;2.418;2022-08-21T14:24:49;1.40;;;0.98;;
62353;SDS011;48391;49.184;2.418;2022-08-21T14:27:16;2.35;;;0.50;;
62353;SDS011;48391;49.184;2.418;2022-08-21T14:29:43;2.00;;;0.60;;
62353;SDS011;48391;49.184;2.418;2022-08-21T14:32:12;3.30;;;0.82;;
62353;SDS011;48391;49.184;2.418;2022-08-21T14:34:39;1.27;;;0.82;;
62353;SDS011;48391;49.184;2.418;2022-08-21T14:37:05;4.72;;;0.77;;
62353;SDS011;48391;49.184;2.418;2022-08-21T14:39:31;3.95;;;0.85;;
62353;SDS011;48391;49.184;2.418;2022-08-21T14:41:57;5.68;;;1.42;;
62353;SDS011;48391;49.184;2.418;2022-08-21T14:44:24;3.88;;;0.50;;
62353;SDS011;48391;49.184;2.418;2022-08-21T14:46:50;2.42;;;0.77;;
62353;SDS011;48391;49.184;2.418;2022-08-21T14:49:16;1.70;;;0.40;;
62353;SDS011;48391;49.184;2.418;2022-08-21T14:51:42;2.25;;;0.68;;
62353;SDS011;48391;49.184;2.418;2022-08-21T14:54:08;2.83;;;0.77;;
62353;SDS011;48391;49.184;2.418;2022-08-21T14:56:34;0.98;;;0.52;;
62353;SDS011;48391;49.184;2.418;2022-08-21T14:59:02;0.77;;;0.40;;
62353;SDS011;48391;49.184;2.418;2022-08-21T15:01:29;1.27;;;0.70;;
62353;SDS011;48391;49.184;2.418;2022-08-21T15:03:55;2.95;;;0.95;;
62353;SDS011;48391;49.184;2.418;2022-08-21T15:06:21;2.28;;;0.93;;
62353;SDS011;48391;49.184;2.418;2022-08-21T15:08:47;2.60;;;0.80;;
62353;SDS011;48391;49.184;2.418;2022-08-21T15:11:16;2.05;;;0.90;;
62353;SDS011;48391;49.184;2.418;2022-08-21T15:13:42;1.25;;;0.60;;
62353;SDS011;48391;49.184;2.418;2022-08-21T15:16:09;1.40;;;0.68;;
62353;SDS011;48391;49.184;2.418;2022-08-21T15:18:36;1.42;;;0.77;;
62353;SDS011;48391;49.184;2.418;2022-08-21T15:21:02;2.03;;;0.82;;
62353;SDS011;48391;49.184;2.418;2022-08-21T15:23:28;1.35;;;0.77;;
62353;SDS011;48391;49.184;2.418;2022-08-21T15:25:54;3.17;;;1.13;;
62353;SDS011;48391;49.184;2.418;2022-08-21T15:28:22;1.65;;;1.15;;
62353;SDS011;48391;49.184;2.418;2022-08-21T15:30:49;3.40;;;0.80;;
62353;SDS011;48391;49.184;2.418;2022-08-21T15:33:15;1.70;;;1.00;;
62353;SDS011;48391;49.184;2.418;2022-08-21T15:35:41;1.77;;;0.95;;
62353;SDS011;48391;49.184;2.418;2022-08-21T15:38:07;2.28;;;0.85;;
62353;SDS011;48391;49.184;2.418;2022-08-21T15:40:34;1.77;;;0.70;;
62353;SDS011;48391;49.184;2.418;2022-08-21T15:43:01;1.67;;;0.68;;
62353;SDS011;48391;49.184;2.418;2022-08-21T15:45:27;1.95;;;0.85;;
62353;SDS011;48391;49.184;2.418;2022-08-21T15:47:54;1.55;;;0.70;;
62353;SDS011;48391;49.184;2.418;2022-08-21T15:50:20;2.33;;;0.88;;
62353;SDS011;48391;49.184;2.418;2022-08-21T15:52:46;1.20;;;0.60;;
62353;SDS011;48391;49.184;2.418;2022-08-21T15:55:12;1.00;;;0.90;;
62353;SDS011;48391;49.184;2.418;2022-08-21T15:57:42;0.98;;;0.50;;
62353;SDS011;48391;49.184;2.418;2022-08-21T16:02:37;1.08;;;0.60;;
62353;SDS011;48391;49.184;2.418;2022-08-21T16:05:04;0.98;;;0.38;;
62353;SDS011;48391;49.184;2.418;2022-08-21T16:07:30;1.50;;;0.57;;
62353;SDS011;48391;49.184;2.418;2022-08-21T16:09:56;2.78;;;0.70;;
62353;SDS011;48391;49.184;2.418;2022-08-21T16:12:23;2.50;;;0.50;;
62353;SDS011;48391;49.184;2.418;2022-08-21T16:14:51;1.05;;;0.50;;
62353;SDS011;48391;49.184;2.418;2022-08-21T16:17:17;0.20;;;0.20;;
62353;SDS011;48391;49.184;2.418;2022-08-21T16:19:43;0.73;;;0.15;;
62353;SDS011;48391;49.184;2.418;2022-08-21T16:22:10;4.70;;;0.95;;
62353;SDS011;48391;49.184;2.418;2022-08-21T16:24:36;2.17;;;0.50;;
62353;SDS011;48391;49.184;2.418;2022-08-21T16:27:02;1.98;;;0.50;;
62353;SDS011;48391;49.184;2.418;2022-08-21T16:29:30;0.20;;;0.10;;
62353;SDS011;48391;49.184;2.418;2022-08-21T16:31:58;2.88;;;0.20;;
62353;SDS011;48391;49.184;2.418;2022-08-21T16:34:24;0.68;;;0.10;;
62353;SDS011;48391;49.184;2.418;2022-08-21T16:36:50;0.70;;;0.20;;
62353;SDS011;48391;49.184;2.418;2022-08-21T16:39:16;0.73;;;0.20;;
62353;SDS011;48391;49.184;2.418;2022-08-21T16:41:42;2.25;;;0.40;;
62353;SDS011;48391;49.184;2.418;2022-08-21T16:44:09;0.17;;;0.10;;
62353;SDS011;48391;49.184;2.418;2022-08-21T16:46:36;0.38;;;0.30;;
62353;SDS011;48391;49.184;2.418;2022-08-21T16:49:03;0.25;;;0.10;;
62353;SDS011;48391;49.184;2.418;2022-08-21T16:51:29;1.08;;;0.32;;
62353;SDS011;48391;49.184;2.418;2022-08-21T16:53:56;3.83;;;0.30;;
62353;SDS011;48391;49.184;2.418;2022-08-21T16:56:22;1.27;;;0.25;;
62353;SDS011;48391;49.184;2.418;2022-08-21T16:58:48;0.20;;;0.20;;
62353;SDS011;48391;49.184;2.418;2022-08-21T17:01:15;0.65;;;0.05;;
62353;SDS011;48391;49.184;2.418;2022-08-21T17:03:44;0.68;;;0.03;;
62353;SDS011;48391;49.184;2.418;2022-08-21T17:06:11;0.45;;;0.10;;
62353;SDS011;48391;49.184;2.418;2022-08-21T17:08:37;0.55;;;0.17;;
62353;SDS011;48391;49.184;2.418;2022-08-21T17:11:07;2.28;;;0.28;;
62353;SDS011;48391;49.184;2.418;2022-08-21T17:13:35;1.17;;;0.50;;
62353;SDS011;48391;49.184;2.418;2022-08-21T17:16:01;0.30;;;0.10;;
62353;SDS011;48391;49.184;2.418;2022-08-21T17:18:27;0.70;;;0.30;;
62353;SDS011;48391;49.184;2.418;2022-08-21T17:20:53;1.58;;;0.20;;
62353;SDS011;48391;49.184;2.418;2022-08-21T17:23:19;1.17;;;0.45;;
62353;SDS011;48391;49.184;2.418;2022-08-21T17:25:47;1.27;;;0.30;;
62353;SDS011;48391;49.184;2.418;2022-08-21T17:28:15;1.50;;;0.68;;
62353;SDS011;48391;49.184;2.418;2022-08-21T17:30:42;0.77;;;0.20;;
62353;SDS011;48391;49.184;2.418;2022-08-21T17:33:10;1.15;;;0.43;;
62353;SDS011;48391;49.184;2.418;2022-08-21T17:35:36;1.27;;;0.40;;
62353;SDS011;48391;49.184;2.418;2022-08-21T17:38:02;0.40;;;0.10;;
62353;SDS011;48391;49.184;2.418;2022-08-21T17:40:29;0.63;;;0.22;;
62353;SDS011;48391;49.184;2.418;2022-08-21T17:42:55;1.08;;;0.20;;
62353;SDS011;48391;49.184;2.418;2022-08-21T17:45:21;0.82;;;0.10;;
62353;SDS011;48391;49.184;2.418;2022-08-21T17:47:47;0.88;;;0.30;;
62353;SDS011;48391;49.184;2.418;2022-08-21T17:50:14;0.57;;;0.47;;
62353;SDS011;48391;49.184;2.418;2022-08-21T17:52:40;1.00;;;0.22;;
62353;SDS011;48391;49.184;2.418;2022-08-21T17:55:09;0.45;;;0.28;;
62353;SDS011;48391;49.184;2.418;2022-08-21T17:57:35;1.10;;;0.20;;
62353;SDS011;48391;49.184;2.418;2022-08-21T18:00:03;0.80;;;0.70;;
62353;SDS011;48391;49.184;2.418;2022-08-21T18:02:30;0.20;;;0.10;;
62353;SDS011;48391;49.184;2.418;2022-08-21T18:04:56;0.95;;;0.40;;
62353;SDS011;48391;49.184;2.418;2022-08-21T18:07:22;0.85;;;0.20;;
62353;SDS011;48391;49.184;2.418;2022-08-21T18:09:49;2.95;;;0.40;;
62353;SDS011;48391;49.184;2.418;2022-08-21T18:12:15;0.85;;;0.20;;
62353;SDS011;48391;49.184;2.418;2022-08-21T18:14:41;0.60;;;0.43;;
62353;SDS011;48391;49.184;2.418;2022-08-21T18:17:08;6.30;;;0.52;;
62353;SDS011;48391;49.184;2.418;2022-08-21T18:19:35;1.90;;;0.32;;
62353;SDS011;48391;49.184;2.418;2022-08-21T18:22:01;0.70;;;0.25;;
62353;SDS011;48391;49.184;2.418;2022-08-21T18:24:32;1.65;;;0.20;;
62353;SDS011;48391;49.184;2.418;2022-08-21T18:26:58;2.40;;;0.30;;
62353;SDS011;48391;49.184;2.418;2022-08-21T18:29:24;7.80;;;0.38;;
62353;SDS011;48391;49.184;2.418;2022-08-21T18:31:50;7.25;;;0.55;;
62353;SDS011;48391;49.184;2.418;2022-08-21T18:36:48;1.08;;;0.20;;
62353;SDS011;48391;49.184;2.418;2022-08-21T18:39:15;2.50;;;1.02;;
62353;SDS011;48391;49.184;2.418;2022-08-21T18:41:41;0.77;;;0.45;;
62353;SDS011;48391;49.184;2.418;2022-08-21T18:44:08;1.85;;;0.32;;
62353;SDS011;48391;49.184;2.418;2022-08-21T18:46:35;2.55;;;0.52;;
62353;SDS011;48391;49.184;2.418;2022-08-21T18:49:01;0.77;;;0.20;;
62353;SDS011;48391;49.184;2.418;2022-08-21T18:51:27;0.75;;;0.40;;
62353;SDS011;48391;49.184;2.418;2022-08-21T18:53:53;4.53;;;1.00;;
62353;SDS011;48391;49.184;2.418;2022-08-21T18:56:19;0.60;;;0.43;;
62353;SDS011;48391;49.184;2.418;2022-08-21T18:58:45;1.05;;;0.55;;
62353;SDS011;48391;49.184;2.418;2022-08-21T19:01:12;3.20;;;0.73;;
62353;SDS011;48391;49.184;2.418;2022-08-21T19:03:38;3.05;;;0.65;;
62353;SDS011;48391;49.184;2.418;2022-08-21T19:06:04;1.98;;;0.52;;
62353;SDS011;48391;49.184;2.418;2022-08-21T19:08:30;4.25;;;0.60;;
62353;SDS011;48391;49.184;2.418;2022-08-21T19:10:56;1.50;;;0.13;;
62353;SDS011;48391;49.184;2.418;2022-08-21T19:13:25;1.45;;;0.80;;
62353;SDS011;48391;49.184;2.418;2022-08-21T19:15:52;1.30;;;0.50;;
62353;SDS011;48391;49.184;2.418;2022-08-21T19:18:20;2.35;;;0.63;;
62353;SDS011;48391;49.184;2.418;2022-08-21T19:20:48;1.73;;;0.70;;
62353;SDS011;48391;49.184;2.418;2022-08-21T19:23:15;4.85;;;0.85;;
62353;SDS011;48391;49.184;2.418;2022-08-21T19:25:43;3.30;;;0.90;;
62353;SDS011;48391;49.184;2.418;2022-08-21T19:28:12;1.55;;;0.60;;
62353;SDS011;48391;49.184;2.418;2022-08-21T19:30:41;4.15;;;0.60;;
62353;SDS011;48391;49.184;2.418;2022-08-21T19:33:07;2.97;;;0.60;;
62353;SDS011;48391;49.184;2.418;2022-08-21T19:35:34;5.13;;;0.60;;
62353;SDS011;48391;49.184;2.418;2022-08-21T19:38:00;2.75;;;1.08;;
62353;SDS011;48391;49.184;2.418;2022-08-21T19:40:26;2.72;;;1.10;;
62353;SDS011;48391;49.184;2.418;2022-08-21T19:42:53;1.05;;;0.75;;
62353;SDS011;48391;49.184;2.418;2022-08-21T19:45:19;2.33;;;0.90;;
62353;SDS011;48391;49.184;2.418;2022-08-21T19:47:46;0.98;;;0.85;;
62353;SDS011;48391;49.184;2.418;2022-08-21T19:50:13;4.70;;;1.35;;
62353;SDS011;48391;49.184;2.418;2022-08-21T19:52:42;1.20;;;0.77;;
62353;SDS011;48391;49.184;2.418;2022-08-21T19:55:09;1.10;;;0.88;;
62353;SDS011;48391;49.184;2.418;2022-08-21T19:57:36;5.00;;;2.65;;
62353;SDS011;48391;49.184;2.418;2022-08-21T20:00:03;3.75;;;1.27;;
62353;SDS011;48391;49.184;2.418;2022-08-21T20:02:30;2.60;;;1.15;;
62353;SDS011;48391;49.184;2.418;2022-08-21T20:04:56;10.15;;;0.55;;
62353;SDS011;48391;49.184;2.418;2022-08-21T20:07:22;1.88;;;0.80;;
62353;SDS011;48391;49.184;2.418;2022-08-21T20:09:48;1.60;;;0.52;;
62353;SDS011;48391;49.184;2.418;2022-08-21T20:12:14;1.88;;;0.75;;
62353;SDS011;48391;49.184;2.418;2022-08-21T20:14:43;2.58;;;0.50;;
62353;SDS011;48391;49.184;2.418;2022-08-21T20:17:10;2.10;;;1.13;;
62353;SDS011;48391;49.184;2.418;2022-08-21T20:19:37;1.73;;;0.75;;
62353;SDS011;48391;49.184;2.418;2022-08-21T20:22:04;3.10;;;0.85;;
62353;SDS011;48391;49.184;2.418;2022-08-21T20:24:30;3.45;;;1.90;;
62353;SDS011;48391;49.184;2.418;2022-08-21T20:26:57;2.28;;;0.80;;
62353;SDS011;48391;49.184;2.418;2022-08-21T20:29:23;4.00;;;0.73;;
62353;SDS011;48391;49.184;2.418;2022-08-21T20:31:49;2.78;;;1.02;;
62353;SDS011;48391;49.184;2.418;2022-08-21T20:34:15;2.30;;;1.00;;
62353;SDS011;48391;49.184;2.418;2022-08-21T20:36:41;1.13;;;0.55;;
62353;SDS011;48391;49.184;2.418;2022-08-21T20:39:08;3.58;;;1.00;;
62353;SDS011;48391;49.184;2.418;2022-08-21T20:41:34;2.83;;;0.95;;
62353;SDS011;48391;49.184;2.418;2022-08-21T20:44:00;5.18;;;2.30;;
62353;SDS011;48391;49.184;2.418;2022-08-21T20:46:27;2.33;;;0.90;;
62353;SDS011;48391;49.184;2.418;2022-08-21T20:48:54;6.40;;;1.77;;
62353;SDS011;48391;49.184;2.418;2022-08-21T20:51:24;3.00;;;0.90;;
62353;SDS011;48391;49.184;2.418;2022-08-21T20:59:07;7.65;;;1.63;;
62353;SDS011;48391;49.184;2.418;2022-08-21T21:01:35;7.80;;;1.73;;
62353;SDS011;48391;49.184;2.418;2022-08-21T21:04:05;6.22;;;1.73;;
62353;SDS011;48391;49.184;2.418;2022-08-21T21:06:33;7.40;;;1.63;;
62353;SDS011;48391;49.184;2.418;2022-08-21T21:09:10;8.65;;;2.08;;
62353;SDS011;48391;49.184;2.418;2022-08-21T21:11:45;4.20;;;1.85;;
62353;SDS011;48391;49.184;2.418;2022-08-21T21:14:13;6.53;;;1.50;;
62353;SDS011;48391;49.184;2.418;2022-08-21T21:16:53;17.08;;;2.90;;
62353;SDS011;48391;49.184;2.418;2022-08-21T21:19:29;5.40;;;1.95;;
62353;SDS011;48391;49.184;2.418;2022-08-21T21:22:00;11.23;;;2.60;;
62353;SDS011;48391;49.184;2.418;2022-08-21T21:24:31;9.05;;;2.20;;
62353;SDS011;48391;49.184;2.418;2022-08-21T21:29:33;8.02;;;2.95;;
62353;SDS011;48391;49.184;2.418;2022-08-21T21:32:02;9.05;;;1.80;;
62353;SDS011;48391;49.184;2.418;2022-08-21T21:34:35;4.60;;;1.67;;
62353;SDS011;48391;49.184;2.418;2022-08-21T21:37:03;6.50;;;1.58;;
62353;SDS011;48391;49.184;2.418;2022-08-21T21:47:22;9.43;;;1.40;;
62353;SDS011;48391;49.184;2.418;2022-08-21T21:55:10;6.07;;;1.67;;
62353;SDS011;48391;49.184;2.418;2022-08-21T21:57:57;6.78;;;2.17;;
62353;SDS011;48391;49.184;2.418;2022-08-21T22:00:25;8.23;;;3.50;;
62353;SDS011;48391;49.184;2.418;2022-08-21T22:07:57;7.57;;;2.13;;
62353;SDS011;48391;49.184;2.418;2022-08-21T22:15:51;4.65;;;2.13;;
62353;SDS011;48391;49.184;2.418;2022-08-21T22:18:19;9.13;;;2.25;;
62353;SDS011;48391;49.184;2.418;2022-08-21T22:23:18;7.72;;;3.00;;
62353;SDS011;48391;49.184;2.418;2022-08-21T22:25:44;14.07;;;4.67;;
62353;SDS011;48391;49.184;2.418;2022-08-21T22:28:19;7.05;;;2.55;;
62353;SDS011;48391;49.184;2.418;2022-08-21T22:30:47;7.35;;;2.40;;
62353;SDS011;48391;49.184;2.418;2022-08-21T22:33:15;6.43;;;2.08;;
62353;SDS011;48391;49.184;2.418;2022-08-21T22:35:42;13.05;;;2.03;;
62353;SDS011;48391;49.184;2.418;2022-08-21T22:38:16;4.53;;;1.92;;
62353;SDS011;48391;49.184;2.418;2022-08-21T22:40:43;7.45;;;2.35;;
62353;SDS011;48391;49.184;2.418;2022-08-21T22:43:17;6.35;;;2.10;;
62353;SDS011;48391;49.184;2.418;2022-08-21T22:45:51;6.25;;;2.83;;
62353;SDS011;48391;49.184;2.418;2022-08-21T22:48:21;6.85;;;2.28;;
62353;SDS011;48391;49.184;2.418;2022-08-21T22:53:24;7.57;;;2.85;;
62353;SDS011;48391;49.184;2.418;2022-08-21T22:55:55;5.40;;;2.47;;
62353;SDS011;48391;49.184;2.418;2022-08-21T22:58:22;7.90;;;2.90;;
62353;SDS011;48391;49.184;2.418;2022-08-21T23:00:57;8.63;;;3.40;;
62353;SDS011;48391;49.184;2.418;2022-08-21T23:05:56;8.77;;;2.92;;
62353;SDS011;48391;49.184;2.418;2022-08-21T23:08:32;6.00;;;2.15;;
62353;SDS011;48391;49.184;2.418;2022-08-21T23:11:03;5.85;;;2.28;;
62353;SDS011;48391;49.184;2.418;2022-08-21T23:13:37;4.32;;;3.00;;
62353;SDS011;48391;49.184;2.418;2022-08-21T23:23:50;6.13;;;2.45;;